GLD352 SGAS-SAEZ
Flight info
| Callsign | GLD352 |
|---|---|
| Flight time | 2h 5m |
| Altitude | 36000 |
| Route | ITAPE ASATI UP526 GEMSU UN785 GUA UZ129 PAGON |
| Aircraft | B77W/H-SDFGIRY/S |
Departure
| Time | 2026-04-23 23:25 |
|---|---|
| Airport | Silvio Pettirossi International Airport (SGAS) |
Arrival
| Time | 2026-04-24 01:30 |
|---|---|
| Airport | Ezeiza International Airport - Ministro Pistarini (SAEZ) |
| Time | Latitude | Longitude | Altitude | Speed | Heading |
|---|---|---|---|---|---|
| 2026-04-23 23:05 | -25.24172 | -57.51534 | 283 ft | 0 kts | 119° |
| 2026-04-23 23:17 | -25.24167 | -57.51545 | 283 ft | 4 kts | 117° |
| 2026-04-23 23:17 | -25.24156 | -57.51572 | 283 ft | 4 kts | 108° |
| 2026-04-23 23:18 | -25.24150 | -57.51600 | 283 ft | 4 kts | 88° |
| 2026-04-23 23:18 | -25.24156 | -57.51625 | 285 ft | 4 kts | 33° |
| 2026-04-23 23:18 | -25.24162 | -57.51629 | 291 ft | 0 kts | 12° |
| 2026-04-23 23:20 | -25.24107 | -57.51616 | 283 ft | 17 kts | 12° |
| 2026-04-23 23:20 | -25.23959 | -57.51666 | 283 ft | 23 kts | 345° |
| 2026-04-23 23:21 | -25.23748 | -57.51636 | 283 ft | 39 kts | 13° |
| 2026-04-23 23:21 | -25.23479 | -57.51571 | 282 ft | 39 kts | 12° |
| 2026-04-23 23:21 | -25.23224 | -57.51509 | 282 ft | 36 kts | 12° |
| 2026-04-23 23:21 | -25.22984 | -57.51452 | 282 ft | 34 kts | 12° |
| 2026-04-23 23:22 | -25.22807 | -57.51411 | 282 ft | 15 kts | 10° |
| 2026-04-23 23:22 | -25.22701 | -57.51386 | 281 ft | 17 kts | 12° |
| 2026-04-23 23:22 | -25.22583 | -57.51375 | 281 ft | 18 kts | 334° |
| 2026-04-23 23:22 | -25.22546 | -57.51433 | 278 ft | 0 kts | 291° |
| 2026-04-23 23:23 | -25.22541 | -57.51447 | 278 ft | 4 kts | 291° |
| 2026-04-23 23:23 | -25.22522 | -57.51500 | 273 ft | 10 kts | 291° |
| 2026-04-23 23:24 | -25.22507 | -57.51547 | 273 ft | 0 kts | 278° |
| 2026-04-23 23:24 | -25.22525 | -57.51562 | 275 ft | 8 kts | 193° |
| 2026-04-23 23:24 | -25.22700 | -57.51598 | 274 ft | 62 kts | 193° |
| 2026-04-23 23:24 | -25.23444 | -57.51780 | 278 ft | 155 kts | 192° |
| 2026-04-23 23:25 | -25.24766 | -57.52108 | 326 ft | 226 kts | 193° |
| 2026-04-23 23:25 | -25.26305 | -57.52497 | 1531 ft | 215 kts | 194° |
| 2026-04-23 23:25 | -25.27655 | -57.52899 | 2890 ft | 199 kts | 197° |
| 2026-04-23 23:25 | -25.29124 | -57.53430 | 2704 ft | 251 kts | 200° |
| 2026-04-23 23:26 | -25.30869 | -57.54095 | 3041 ft | 267 kts | 192° |
| 2026-04-23 23:26 | -25.32669 | -57.54419 | 4038 ft | 264 kts | 189° |
| 2026-04-23 23:26 | -25.34509 | -57.54716 | 4938 ft | 264 kts | 182° |
| 2026-04-23 23:26 | -25.36294 | -57.54225 | 5603 ft | 272 kts | 146° |
| 2026-04-23 23:27 | -25.37623 | -57.52787 | 6365 ft | 272 kts | 131° |
| 2026-04-23 23:27 | -25.38930 | -57.51235 | 7085 ft | 279 kts | 134° |
| 2026-04-23 23:27 | -25.40292 | -57.49697 | 7931 ft | 281 kts | 134° |
| 2026-04-23 23:27 | -25.41653 | -57.48138 | 8765 ft | 283 kts | 134° |
| 2026-04-23 23:28 | -25.43129 | -57.46707 | 9406 ft | 286 kts | 152° |
| 2026-04-23 23:28 | -25.45008 | -57.45984 | 9985 ft | 289 kts | 166° |
| 2026-04-23 23:28 | -25.46988 | -57.45383 | 10480 ft | 305 kts | 164° |
| 2026-04-23 23:28 | -25.49110 | -57.44700 | 10666 ft | 331 kts | 164° |
| 2026-04-23 23:29 | -25.51405 | -57.43951 | 10893 ft | 356 kts | 163° |
| 2026-04-23 23:29 | -25.53865 | -57.43145 | 11465 ft | 369 kts | 163° |
| 2026-04-23 23:29 | -25.56342 | -57.42491 | 12083 ft | 376 kts | 175° |
| 2026-04-23 23:29 | -25.58945 | -57.42752 | 12817 ft | 376 kts | 193° |
| 2026-04-23 23:30 | -25.61534 | -57.43388 | 13555 ft | 385 kts | 192° |
| 2026-04-23 23:30 | -25.64170 | -57.43977 | 14446 ft | 388 kts | 191° |
| 2026-04-23 23:30 | -25.66835 | -57.44548 | 15348 ft | 392 kts | 191° |
| 2026-04-23 23:30 | -25.69524 | -57.45116 | 16173 ft | 396 kts | 191° |
| 2026-04-23 23:31 | -25.72252 | -57.45690 | 16950 ft | 401 kts | 191° |
| 2026-04-23 23:31 | -25.75015 | -57.46272 | 17741 ft | 406 kts | 191° |
| 2026-04-23 23:31 | -25.77809 | -57.46861 | 18503 ft | 411 kts | 191° |
| 2026-04-23 23:31 | -25.80630 | -57.47457 | 19252 ft | 415 kts | 191° |
| 2026-04-23 23:32 | -25.83484 | -57.48060 | 19961 ft | 420 kts | 191° |
| 2026-04-23 23:32 | -25.86370 | -57.48671 | 20648 ft | 424 kts | 191° |
| 2026-04-23 23:32 | -25.89288 | -57.49289 | 21327 ft | 429 kts | 191° |
| 2026-04-23 23:32 | -25.92231 | -57.49912 | 21992 ft | 433 kts | 191° |
| 2026-04-23 23:33 | -25.95205 | -57.50542 | 22618 ft | 437 kts | 191° |
| 2026-04-23 23:33 | -25.98209 | -57.51179 | 23231 ft | 441 kts | 191° |
| 2026-04-23 23:33 | -26.01243 | -57.51823 | 23832 ft | 445 kts | 191° |
| 2026-04-23 23:33 | -26.04455 | -57.52504 | 24423 ft | 450 kts | 191° |
| 2026-04-23 23:34 | -26.06794 | -57.53001 | 24847 ft | 452 kts | 191° |
| 2026-04-23 23:34 | -26.10049 | -57.53554 | 25402 ft | 457 kts | 185° |
| 2026-04-23 23:34 | -26.13334 | -57.53716 | 25930 ft | 461 kts | 180° |
| 2026-04-23 23:34 | -26.16518 | -57.53692 | 26412 ft | 464 kts | 179° |
| 2026-04-23 23:35 | -26.19862 | -57.53618 | 26938 ft | 467 kts | 179° |
| 2026-04-23 23:35 | -26.23131 | -57.53561 | 27412 ft | 471 kts | 179° |
| 2026-04-23 23:35 | -26.26424 | -57.53538 | 27863 ft | 474 kts | 180° |
| 2026-04-23 23:35 | -26.29732 | -57.53545 | 28300 ft | 477 kts | 180° |
| 2026-04-23 23:36 | -26.33062 | -57.53573 | 28721 ft | 480 kts | 181° |
| 2026-04-23 23:36 | -26.36418 | -57.53613 | 29105 ft | 483 kts | 181° |
| 2026-04-23 23:36 | -26.39783 | -57.53657 | 29483 ft | 486 kts | 181° |
| 2026-04-23 23:36 | -26.43174 | -57.53701 | 29866 ft | 487 kts | 181° |
| 2026-04-23 23:37 | -26.46558 | -57.53744 | 30352 ft | 486 kts | 181° |
| 2026-04-23 23:37 | -26.49936 | -57.53785 | 30867 ft | 484 kts | 181° |
| 2026-04-23 23:37 | -26.53303 | -57.53824 | 31363 ft | 483 kts | 181° |
| 2026-04-23 23:37 | -26.56658 | -57.53863 | 31813 ft | 482 kts | 181° |
| 2026-04-23 23:38 | -26.60010 | -57.53902 | 32231 ft | 481 kts | 181° |
| 2026-04-23 23:38 | -26.63356 | -57.53941 | 32649 ft | 481 kts | 181° |
| 2026-04-23 23:38 | -26.66694 | -57.53980 | 33056 ft | 480 kts | 181° |
| 2026-04-23 23:38 | -26.70029 | -57.54019 | 33451 ft | 479 kts | 181° |
| 2026-04-23 23:39 | -26.73358 | -57.54058 | 33828 ft | 478 kts | 181° |
| 2026-04-23 23:39 | -26.76682 | -57.54097 | 34193 ft | 477 kts | 181° |
| 2026-04-23 23:39 | -26.80003 | -57.54136 | 34547 ft | 476 kts | 181° |
| 2026-04-23 23:39 | -26.83310 | -57.54174 | 34889 ft | 476 kts | 181° |
| 2026-04-23 23:40 | -26.86618 | -57.54216 | 35219 ft | 475 kts | 181° |
| 2026-04-23 23:40 | -26.89917 | -57.54290 | 35536 ft | 474 kts | 181° |
| 2026-04-23 23:40 | -26.93218 | -57.54385 | 35839 ft | 474 kts | 182° |
| 2026-04-23 23:41 | -26.99810 | -57.54588 | 35977 ft | 479 kts | 182° |
| 2026-04-23 23:41 | -27.06440 | -57.54782 | 36001 ft | 474 kts | 181° |
| 2026-04-23 23:42 | -27.13012 | -57.54966 | 36000 ft | 471 kts | 181° |
| 2026-04-23 23:42 | -27.19553 | -57.55147 | 36000 ft | 470 kts | 181° |
| 2026-04-23 23:43 | -27.26090 | -57.55329 | 36003 ft | 470 kts | 181° |
| 2026-04-23 23:43 | -27.32629 | -57.55512 | 36003 ft | 471 kts | 181° |
| 2026-04-23 23:44 | -27.39188 | -57.55696 | 36006 ft | 472 kts | 181° |
| 2026-04-23 23:44 | -27.45759 | -57.55894 | 36004 ft | 473 kts | 182° |
| 2026-04-23 23:45 | -27.52348 | -57.56168 | 36003 ft | 474 kts | 182° |
| 2026-04-23 23:45 | -27.58941 | -57.56456 | 36000 ft | 475 kts | 182° |
| 2026-04-23 23:46 | -27.65548 | -57.56734 | 35999 ft | 475 kts | 182° |
| 2026-04-23 23:46 | -27.72153 | -57.57008 | 36001 ft | 475 kts | 182° |
| 2026-04-23 23:47 | -27.78761 | -57.57281 | 36004 ft | 475 kts | 182° |
| 2026-04-23 23:47 | -27.85363 | -57.57554 | 36002 ft | 475 kts | 182° |
| 2026-04-23 23:48 | -27.91962 | -57.57828 | 36002 ft | 474 kts | 182° |
| 2026-04-23 23:48 | -27.98551 | -57.58102 | 36004 ft | 474 kts | 182° |
| 2026-04-23 23:49 | -28.08426 | -57.58513 | 36000 ft | 473 kts | 182° |
| 2026-04-23 23:49 | -28.15006 | -57.58787 | 36003 ft | 473 kts | 182° |
| 2026-04-23 23:50 | -28.21584 | -57.59056 | 36001 ft | 473 kts | 182° |
| 2026-04-23 23:50 | -28.28163 | -57.59225 | 36002 ft | 473 kts | 181° |
| 2026-04-23 23:51 | -28.34703 | -57.59358 | 36003 ft | 473 kts | 181° |
| 2026-04-23 23:51 | -28.41326 | -57.59503 | 35998 ft | 473 kts | 181° |
| 2026-04-23 23:52 | -28.47912 | -57.59658 | 36001 ft | 473 kts | 181° |
| 2026-04-23 23:52 | -28.54496 | -57.59816 | 35998 ft | 473 kts | 181° |
| 2026-04-23 23:53 | -28.61086 | -57.59973 | 36002 ft | 474 kts | 181° |
| 2026-04-23 23:53 | -28.67629 | -57.60130 | 36003 ft | 474 kts | 181° |
| 2026-04-23 23:54 | -28.74211 | -57.60287 | 36004 ft | 474 kts | 181° |
| 2026-04-23 23:54 | -28.80856 | -57.60446 | 36000 ft | 474 kts | 181° |
| 2026-04-23 23:55 | -28.87396 | -57.60602 | 36001 ft | 474 kts | 181° |
| 2026-04-23 23:55 | -28.93992 | -57.60761 | 36001 ft | 474 kts | 181° |
| 2026-04-23 23:56 | -29.00588 | -57.60919 | 36001 ft | 474 kts | 181° |
| 2026-04-23 23:56 | -29.07182 | -57.61078 | 36001 ft | 474 kts | 181° |
| 2026-04-23 23:57 | -29.13770 | -57.61236 | 36003 ft | 474 kts | 181° |
| 2026-04-23 23:57 | -29.20363 | -57.61395 | 36000 ft | 474 kts | 181° |
| 2026-04-23 23:58 | -29.26953 | -57.61553 | 36003 ft | 474 kts | 181° |
| 2026-04-23 23:58 | -29.33543 | -57.61701 | 36002 ft | 474 kts | 181° |
| 2026-04-23 23:59 | -29.40133 | -57.61846 | 36001 ft | 474 kts | 181° |
| 2026-04-23 23:59 | -29.46719 | -57.61992 | 36002 ft | 474 kts | 181° |
| 2026-04-24 00:00 | -29.53355 | -57.62141 | 36002 ft | 474 kts | 181° |
| 2026-04-24 00:00 | -29.59944 | -57.62289 | 36001 ft | 474 kts | 181° |
| 2026-04-24 00:01 | -29.66526 | -57.62437 | 36002 ft | 474 kts | 181° |
| 2026-04-24 00:01 | -29.72008 | -57.62561 | 36001 ft | 474 kts | 181° |
| 2026-04-24 00:02 | -29.78598 | -57.62709 | 36000 ft | 474 kts | 181° |
| 2026-04-24 00:02 | -29.85185 | -57.62858 | 36003 ft | 474 kts | 181° |
| 2026-04-24 00:03 | -29.91779 | -57.63007 | 36003 ft | 474 kts | 181° |
| 2026-04-24 00:03 | -29.98370 | -57.63156 | 36003 ft | 474 kts | 181° |
| 2026-04-24 00:04 | -30.04956 | -57.63306 | 36001 ft | 474 kts | 181° |
| 2026-04-24 00:04 | -30.11547 | -57.63455 | 36001 ft | 474 kts | 181° |
| 2026-04-24 00:05 | -30.18136 | -57.63605 | 35998 ft | 474 kts | 181° |
| 2026-04-24 00:05 | -30.24722 | -57.63842 | 35998 ft | 473 kts | 186° |
| 2026-04-24 00:06 | -30.31176 | -57.65237 | 35998 ft | 473 kts | 197° |
| 2026-04-24 00:06 | -30.37462 | -57.67477 | 36003 ft | 472 kts | 198° |
| 2026-04-24 00:07 | -30.43742 | -57.69732 | 35999 ft | 473 kts | 197° |
| 2026-04-24 00:07 | -30.50040 | -57.71950 | 36000 ft | 473 kts | 197° |
| 2026-04-24 00:08 | -30.56343 | -57.74153 | 36005 ft | 473 kts | 197° |
| 2026-04-24 00:08 | -30.62651 | -57.76364 | 36000 ft | 473 kts | 197° |
| 2026-04-24 00:09 | -30.68915 | -57.78563 | 36002 ft | 473 kts | 197° |
| 2026-04-24 00:09 | -30.75220 | -57.80768 | 36001 ft | 473 kts | 197° |
| 2026-04-24 00:10 | -30.81533 | -57.82967 | 36001 ft | 473 kts | 197° |
| 2026-04-24 00:10 | -30.87840 | -57.85168 | 36000 ft | 473 kts | 197° |
| 2026-04-24 00:11 | -30.94143 | -57.87373 | 36001 ft | 473 kts | 197° |
| 2026-04-24 00:11 | -31.00449 | -57.89584 | 36000 ft | 473 kts | 197° |
| 2026-04-24 00:12 | -31.06751 | -57.91795 | 36003 ft | 473 kts | 197° |
| 2026-04-24 00:12 | -31.13055 | -57.94011 | 36003 ft | 473 kts | 197° |
| 2026-04-24 00:13 | -31.19352 | -57.96227 | 36003 ft | 473 kts | 197° |
| 2026-04-24 00:13 | -31.25653 | -57.98448 | 36000 ft | 473 kts | 197° |
| 2026-04-24 00:14 | -31.31955 | -58.00672 | 36002 ft | 473 kts | 197° |
| 2026-04-24 00:14 | -31.38252 | -58.02898 | 36002 ft | 473 kts | 197° |
| 2026-04-24 00:15 | -31.44551 | -58.05127 | 36004 ft | 473 kts | 197° |
| 2026-04-24 00:15 | -31.50847 | -58.07358 | 35999 ft | 473 kts | 197° |
| 2026-04-24 00:16 | -31.57143 | -58.09593 | 36000 ft | 473 kts | 197° |
| 2026-04-24 00:16 | -31.63440 | -58.11831 | 35999 ft | 473 kts | 197° |
| 2026-04-24 00:17 | -31.69047 | -58.13826 | 36003 ft | 473 kts | 197° |
| 2026-04-24 00:17 | -31.75347 | -58.16071 | 36001 ft | 473 kts | 197° |
| 2026-04-24 00:18 | -31.81647 | -58.18320 | 36000 ft | 473 kts | 197° |
| 2026-04-24 00:18 | -31.87945 | -58.20569 | 36002 ft | 473 kts | 197° |
| 2026-04-24 00:19 | -31.94240 | -58.22823 | 35999 ft | 473 kts | 197° |
| 2026-04-24 00:19 | -32.00538 | -58.25081 | 36002 ft | 473 kts | 197° |
| 2026-04-24 00:20 | -32.06834 | -58.27341 | 36001 ft | 473 kts | 197° |
| 2026-04-24 00:20 | -32.13128 | -58.29603 | 36001 ft | 473 kts | 197° |
| 2026-04-24 00:21 | -32.19425 | -58.31870 | 36002 ft | 473 kts | 197° |
| 2026-04-24 00:21 | -32.25718 | -58.34139 | 35999 ft | 473 kts | 197° |
| 2026-04-24 00:22 | -32.32014 | -58.36412 | 36003 ft | 473 kts | 197° |
| 2026-04-24 00:22 | -32.38307 | -58.38677 | 35999 ft | 473 kts | 197° |
| 2026-04-24 00:23 | -32.44606 | -58.40942 | 36003 ft | 473 kts | 197° |
| 2026-04-24 00:23 | -32.50900 | -58.43210 | 36004 ft | 473 kts | 197° |
| 2026-04-24 00:24 | -32.57196 | -58.45484 | 35999 ft | 473 kts | 197° |
| 2026-04-24 00:24 | -32.63493 | -58.47762 | 36002 ft | 473 kts | 197° |
| 2026-04-24 00:25 | -32.64137 | -58.47995 | 36001 ft | 473 kts | 197° |
| 2026-04-24 01:03 | -32.65356 | -58.48436 | 36008 ft | 473 kts | 197° |
| 2026-04-24 01:04 | -32.71651 | -58.50717 | 36005 ft | 473 kts | 197° |
| 2026-04-24 01:04 | -32.77946 | -58.53003 | 36001 ft | 473 kts | 197° |
| 2026-04-24 01:05 | -32.84215 | -58.55278 | 35515 ft | 471 kts | 197° |
| 2026-04-24 01:05 | -32.87335 | -58.56405 | 35049 ft | 466 kts | 197° |
| 2026-04-24 01:05 | -32.90423 | -58.57532 | 34588 ft | 462 kts | 197° |
| 2026-04-24 01:05 | -32.93478 | -58.58654 | 34112 ft | 458 kts | 197° |
| 2026-04-24 01:06 | -32.96517 | -58.59766 | 33639 ft | 455 kts | 197° |
| 2026-04-24 01:06 | -32.99535 | -58.60841 | 33181 ft | 451 kts | 195° |
| 2026-04-24 01:06 | -33.02590 | -58.61636 | 32679 ft | 448 kts | 188° |
| 2026-04-24 01:06 | -33.05671 | -58.62051 | 32228 ft | 444 kts | 186° |
| 2026-04-24 01:07 | -33.08740 | -58.62386 | 31755 ft | 441 kts | 185° |
| 2026-04-24 01:07 | -33.11783 | -58.62729 | 31281 ft | 438 kts | 187° |
| 2026-04-24 01:07 | -33.14799 | -58.63176 | 30816 ft | 435 kts | 188° |
| 2026-04-24 01:07 | -33.17783 | -58.63677 | 30353 ft | 432 kts | 188° |
| 2026-04-24 01:08 | -33.20750 | -58.64189 | 29889 ft | 429 kts | 188° |
| 2026-04-24 01:08 | -33.23653 | -58.64687 | 29441 ft | 426 kts | 188° |
| 2026-04-24 01:08 | -33.26584 | -58.65181 | 28984 ft | 424 kts | 188° |
| 2026-04-24 01:08 | -33.29494 | -58.65664 | 28501 ft | 421 kts | 188° |
| 2026-04-24 01:09 | -33.32384 | -58.66137 | 28051 ft | 418 kts | 188° |
| 2026-04-24 01:09 | -33.35263 | -58.66604 | 27600 ft | 416 kts | 188° |
| 2026-04-24 01:09 | -33.38124 | -58.67068 | 27139 ft | 414 kts | 188° |
| 2026-04-24 01:09 | -33.40965 | -58.67527 | 26677 ft | 411 kts | 188° |
| 2026-04-24 01:10 | -33.43792 | -58.67985 | 26236 ft | 409 kts | 188° |
| 2026-04-24 01:10 | -33.46602 | -58.68439 | 25787 ft | 406 kts | 188° |
| 2026-04-24 01:10 | -33.49395 | -58.68892 | 25335 ft | 404 kts | 188° |
| 2026-04-24 01:10 | -33.52172 | -58.69343 | 24895 ft | 402 kts | 188° |
| 2026-04-24 01:11 | -33.54934 | -58.69791 | 24458 ft | 399 kts | 188° |
| 2026-04-24 01:11 | -33.57677 | -58.70237 | 24015 ft | 397 kts | 188° |
| 2026-04-24 01:11 | -33.60407 | -58.70681 | 23573 ft | 395 kts | 188° |
| 2026-04-24 01:11 | -33.63124 | -58.71123 | 23141 ft | 393 kts | 188° |
| 2026-04-24 01:12 | -33.65824 | -58.71562 | 22707 ft | 390 kts | 188° |
| 2026-04-24 01:12 | -33.68545 | -58.72006 | 22265 ft | 388 kts | 188° |
| 2026-04-24 01:12 | -33.71177 | -58.72435 | 21832 ft | 386 kts | 188° |
| 2026-04-24 01:12 | -33.73838 | -58.72869 | 21405 ft | 385 kts | 188° |
| 2026-04-24 01:13 | -33.76484 | -58.73301 | 20973 ft | 383 kts | 188° |
| 2026-04-24 01:13 | -33.79116 | -58.73731 | 20545 ft | 381 kts | 188° |
| 2026-04-24 01:13 | -33.81736 | -58.74159 | 20100 ft | 379 kts | 188° |
| 2026-04-24 01:13 | -33.84345 | -58.74586 | 19684 ft | 377 kts | 188° |
| 2026-04-24 01:14 | -33.86976 | -58.75016 | 19252 ft | 376 kts | 188° |
| 2026-04-24 01:14 | -33.89527 | -58.75434 | 18835 ft | 374 kts | 188° |
| 2026-04-24 01:14 | -33.92103 | -58.75856 | 18396 ft | 373 kts | 188° |
| 2026-04-24 01:14 | -33.94666 | -58.76276 | 17965 ft | 371 kts | 188° |
| 2026-04-24 01:15 | -33.97258 | -58.76701 | 17535 ft | 370 kts | 188° |
| 2026-04-24 01:15 | -33.99769 | -58.77113 | 17115 ft | 369 kts | 188° |
| 2026-04-24 01:15 | -34.02304 | -58.77530 | 16689 ft | 367 kts | 188° |
| 2026-04-24 01:15 | -34.04829 | -58.77945 | 16261 ft | 366 kts | 188° |
| 2026-04-24 01:16 | -34.07350 | -58.78359 | 15841 ft | 364 kts | 188° |
| 2026-04-24 01:16 | -34.09855 | -58.78771 | 15415 ft | 363 kts | 188° |
| 2026-04-24 01:16 | -34.12356 | -58.79183 | 14996 ft | 362 kts | 188° |
| 2026-04-24 01:16 | -34.14844 | -58.79593 | 14574 ft | 360 kts | 188° |
| 2026-04-24 01:17 | -34.17325 | -58.80002 | 14149 ft | 359 kts | 188° |
| 2026-04-24 01:17 | -34.19795 | -58.80409 | 13733 ft | 358 kts | 188° |
| 2026-04-24 01:17 | -34.22255 | -58.80815 | 13318 ft | 356 kts | 188° |
| 2026-04-24 01:17 | -34.24699 | -58.81218 | 12891 ft | 348 kts | 188° |
| 2026-04-24 01:18 | -34.27028 | -58.81603 | 12468 ft | 327 kts | 188° |
| 2026-04-24 01:18 | -34.29214 | -58.81964 | 12088 ft | 308 kts | 188° |
| 2026-04-24 01:18 | -34.31276 | -58.82304 | 11737 ft | 291 kts | 188° |
| 2026-04-24 01:18 | -34.33229 | -58.82627 | 11413 ft | 277 kts | 188° |
| 2026-04-24 01:19 | -34.35138 | -58.82943 | 11130 ft | 284 kts | 188° |
| 2026-04-24 01:19 | -34.37187 | -58.83284 | 10812 ft | 308 kts | 188° |
| 2026-04-24 01:19 | -34.39332 | -58.83640 | 10472 ft | 310 kts | 188° |
| 2026-04-24 01:19 | -34.41404 | -58.83983 | 10320 ft | 291 kts | 188° |
| 2026-04-24 01:20 | -34.43331 | -58.84302 | 10168 ft | 268 kts | 188° |
| 2026-04-24 01:20 | -34.45110 | -58.84597 | 10048 ft | 255 kts | 188° |
| 2026-04-24 01:20 | -34.46919 | -58.84898 | 9935 ft | 270 kts | 188° |
| 2026-04-24 01:20 | -34.48809 | -58.85212 | 9595 ft | 275 kts | 188° |
| 2026-04-24 01:21 | -34.50677 | -58.85523 | 9281 ft | 266 kts | 188° |
| 2026-04-24 01:21 | -34.52472 | -58.85821 | 8968 ft | 256 kts | 188° |
| 2026-04-24 01:21 | -34.54259 | -58.86118 | 8696 ft | 264 kts | 188° |
| 2026-04-24 01:21 | -34.56103 | -58.86425 | 8377 ft | 270 kts | 188° |
| 2026-04-24 01:22 | -34.57959 | -58.86734 | 8039 ft | 266 kts | 188° |
| 2026-04-24 01:22 | -34.59755 | -58.87033 | 7715 ft | 254 kts | 188° |
| 2026-04-24 01:22 | -34.61489 | -58.87322 | 7408 ft | 253 kts | 188° |
| 2026-04-24 01:22 | -34.63265 | -58.87618 | 7130 ft | 262 kts | 188° |
| 2026-04-24 01:23 | -34.65078 | -58.87921 | 6816 ft | 261 kts | 188° |
| 2026-04-24 01:23 | -34.66854 | -58.88217 | 6490 ft | 257 kts | 188° |
| 2026-04-24 01:23 | -34.68637 | -58.88515 | 6194 ft | 260 kts | 188° |
| 2026-04-24 01:23 | -34.70437 | -58.88815 | 5889 ft | 262 kts | 188° |
| 2026-04-24 01:24 | -34.72241 | -58.89116 | 5565 ft | 261 kts | 188° |
| 2026-04-24 01:24 | -34.74037 | -58.89199 | 5224 ft | 258 kts | 167° |
| 2026-04-24 01:24 | -34.75606 | -58.88229 | 4931 ft | 255 kts | 135° |
| 2026-04-24 01:24 | -34.76550 | -58.86434 | 4631 ft | 253 kts | 108° |
| 2026-04-24 01:25 | -34.76942 | -58.84345 | 4398 ft | 254 kts | 100° |
| 2026-04-24 01:25 | -34.77254 | -58.82313 | 4323 ft | 231 kts | 101° |
| 2026-04-24 01:25 | -34.77542 | -58.80477 | 4026 ft | 212 kts | 101° |
| 2026-04-24 01:25 | -34.77806 | -58.78787 | 3789 ft | 198 kts | 101° |
| 2026-04-24 01:26 | -34.78064 | -58.77148 | 3546 ft | 197 kts | 101° |
| 2026-04-24 01:26 | -34.78323 | -58.75507 | 3322 ft | 197 kts | 101° |
| 2026-04-24 01:26 | -34.78583 | -58.73882 | 3122 ft | 196 kts | 101° |
| 2026-04-24 01:26 | -34.78862 | -58.72254 | 2834 ft | 196 kts | 102° |
| 2026-04-24 01:27 | -34.79052 | -58.71185 | 2661 ft | 195 kts | 102° |
| 2026-04-24 01:27 | -34.79341 | -58.69582 | 2404 ft | 194 kts | 102° |
| 2026-04-24 01:27 | -34.79627 | -58.67991 | 2158 ft | 191 kts | 102° |
| 2026-04-24 01:27 | -34.79912 | -58.66409 | 1899 ft | 192 kts | 102° |
| 2026-04-24 01:28 | -34.80198 | -58.64824 | 1645 ft | 192 kts | 103° |
| 2026-04-24 01:28 | -34.80485 | -58.63242 | 1384 ft | 191 kts | 103° |
| 2026-04-24 01:28 | -34.80767 | -58.61666 | 1134 ft | 190 kts | 103° |
| 2026-04-24 01:28 | -34.81047 | -58.60091 | 881 ft | 190 kts | 102° |
| 2026-04-24 01:29 | -34.81327 | -58.58534 | 632 ft | 188 kts | 102° |
| 2026-04-24 01:29 | -34.81608 | -58.56978 | 372 ft | 188 kts | 102° |
| 2026-04-24 01:29 | -34.81885 | -58.55436 | 218 ft | 185 kts | 102° |
| 2026-04-24 01:29 | -34.82156 | -58.53894 | 145 ft | 186 kts | 102° |
| 2026-04-24 01:30 | -34.82413 | -58.52431 | 88 ft | 140 kts | 101° |
| 2026-04-24 01:30 | -34.82486 | -58.51848 | 89 ft | 30 kts | 57° |
| 2026-04-24 01:30 | -34.82367 | -58.51799 | 84 ft | 0 kts | 9° |